Date,TemperatureHighF,TemperatureAvgF,TemperatureLowF,DewpointHighF,DewpointAvgF,DewpointLowF,HumidityHigh,HumidityAvg,HumidityLow,PressureMaxIn,PressureMinIn,WindSpeedMaxMPH,WindSpeedAvgMPH,GustSpeedMaxMPH,PrecipitationSumIn
2014-1-1,28.4,23.0,18.3,19.2,15.6,10.9,80,73,63,30.16,30.08,4,2,14,0.00
2014-1-2,20.7,12.7,1.0,11.3,1.5,-10.9,74,60,46,30.47,30.11,7,3,17,0.00
2014-1-3,24.4,12.0,-2.6,10.4,-0.5,-13.2,64,57,47,30.47,29.94,7,3,17,0.00
2014-1-4,41.9,30.7,22.3,26.3,17.5,9.2,75,58,49,30.00,29.87,8,3,16,0.02
2014-1-5,23.7,12.6,-3.5,16.1,3.3,-25.7,79,66,32,30.31,29.93,10,5,27,0.00
2014-1-6,-2.9,-8.0,-12.6,-25.3,-29.7,-34.5,42,32,26,30.44,30.31,10,5,24,0.00
2014-1-7,17.2,3.0,-10.1,-2.6,-13.8,-27.0,62,45,33,30.41,30.18,6,2,12,0.00
2014-1-8,19.0,13.7,4.5,5.0,0.6,-5.9,63,56,44,30.48,30.23,3,1,9,0.00
2014-1-9,31.6,23.4,14.7,28.5,16.2,4.1,88,74,61,30.45,30.13,3,2,8,0.00
2014-1-10,41.4,36.5,31.6,40.0,34.3,28.5,97,92,86,30.14,29.52,5,3,11,0.50
2014-1-11,45.3,37.7,28.9,40.7,31.4,23.3,97,79,55,29.92,29.51,8,4,17,0.04
2014-1-12,52.0,39.4,26.2,35.1,29.5,21.0,87,69,48,29.92,29.62,7,3,17,0.00
2014-1-13,52.2,41.0,28.6,35.3,30.9,22.5,84,68,48,29.87,29.59,6,3,14,0.00
2014-1-14,42.1,32.7,24.4,35.7,21.8,9.7,88,65,44,30.06,29.71,10,4,24,0.05
2014-1-15,26.2,21.2,16.5,11.8,7.0,2.2,63,54,42,30.20,29.92,7,4,16,0.00
2014-1-16,44.1,31.5,17.1,29.6,20.7,2.5,84,65,44,29.92,29.64,12,6,29,0.02
2014-1-17,17.6,13.4,9.5,4.5,-0.7,-7.3,64,52,45,30.09,29.87,8,4,24,0.00
2014-1-18,34.7,24.4,12.6,30.6,15.1,2.4,86,68,43,30.05,29.62,7,2,19,0.09
2014-1-19,48.2,32.9,18.1,27.7,19.6,9.1,75,59,43,30.04,29.71,14,5,23,0.02
2014-1-20,46.4,37.7,30.0,29.7,26.7,23.7,82,65,48,29.96,29.74,6,2,17,0.05
2014-1-21,28.6,10.7,6.4,22.3,-4.1,-12.0,78,51,35,30.39,29.96,1,0,14,0.00
2014-1-22,25.3,15.7,2.5,10.0,0.9,-14.6,63,51,38,30.37,30.01,8,2,21,0.00
2014-1-23,12.9,2.9,-3.1,-11.3,-15.9,-19.4,48,40,27,30.72,30.38,7,4,21,0.00
2014-1-24,35.8,18.8,0.3,13.2,-4.3,-15.4,50,36,23,30.66,29.66,15,8,34,0.02
2014-1-25,38.1,29.4,18.0,28.1,5.3,-11.9,75,38,20,29.98,29.60,12,5,26,0.00
2014-1-26,51.4,36.5,15.1,30.9,16.2,-15.9,65,44,23,30.06,29.53,12,6,30,0.02
2014-1-27,14.7,6.1,-0.4,-15.4,-19.3,-25.0,42,29,18,30.52,30.07,11,5,27,0.00
2014-1-28,17.2,5.9,-3.8,-13.6,-17.2,-20.8,49,34,22,30.53,30.33,6,2,14,0.00
2014-1-29,33.6,19.6,6.1,-0.2,-6.0,-14.0,49,32,22,30.33,30.03,11,4,23,0.00
2014-1-30,40.5,31.6,22.6,22.3,9.6,-2.4,64,41,21,30.03,29.74,14,5,30,0.00
2014-1-31,28.2,21.8,19.2,17.3,13.1,9.3,79,69,56,30.16,29.98,4,2,14,0.00
2014-2-1,31.6,26.8,22.6,29.3,23.0,17.2,91,85,78,30.14,29.82,3,0,8,0.35
2014-2-2,22.6,13.2,3.9,18.3,4.6,-5.1,83,68,60,30.36,30.15,0,0,0,0.00
2014-2-3,23.2,9.8,-2.2,8.7,-1.5,-12.5,66,60,46,30.43,30.33,0,0,0,0.02
2014-2-4,20.3,17.8,12.6,14.9,10.7,3.4,81,73,64,30.36,30.02,0,0,0,0.00
2014-2-5,20.7,15.5,3.0,15.2,6.4,-8.8,82,67,54,30.58,29.99,0,0,0,0.00
2014-2-6,11.7,1.9,-4.7,-9.0,-14.0,-16.6,57,47,31,30.61,30.48,0,0,0,0.00
2014-2-7,16.2,5.4,-5.8,-1.2,-10.3,-17.8,56,48,29,30.51,30.33,0,0,0,0.00
2014-2-8,23.7,18.7,11.7,13.4,8.3,-1.2,69,63,53,30.33,30.13,0,0,0,0.00
2014-2-9,23.2,18.4,5.7,15.9,6.0,-10.0,77,58,43,30.40,30.14,4,1,11,0.00
2014-2-10,15.6,3.3,-3.3,-9.6,-14.2,-18.2,51,43,28,30.52,30.40,5,2,9,0.00
2014-2-11,18.9,4.2,-7.2,-8.8,-14.2,-19.7,55,42,24,30.54,30.34,3,1,8,0.00
2014-2-12,32.7,15.7,1.6,9.8,-1.3,-10.7,57,47,30,30.34,30.02,3,1,7,0.01
2014-2-13,40.8,27.8,11.7,27.1,14.4,-1.3,70,57,41,30.03,29.67,9,4,17,0.02
2014-2-14,30.2,18.9,6.8,20.9,8.7,-4.4,75,64,54,30.08,29.70,6,2,15,0.00
2014-2-15,25.9,11.1,-0.6,16.5,0.4,-11.5,70,61,47,30.15,29.94,6,2,11,0.00
2014-2-16,30.9,25.0,20.5,16.6,14.1,11.3,69,63,54,30.26,29.96,6,2,13,0.04
2014-2-17,39.4,30.3,20.3,31.7,23.5,10.8,87,76,62,30.18,29.78,8,2,14,0.28
2014-2-18,54.9,42.8,31.6,29.7,25.6,20.9,68,52,31,30.01,29.71,5,2,12,0.07
2014-2-19,49.6,40.6,34.3,33.5,29.0,26.1,85,64,44,30.05,29.78,4,2,10,0.07
2014-2-20,63.9,45.2,36.0,55.3,37.8,26.0,87,75,57,29.78,29.19,23,7,45,0.25
2014-2-21,50.4,39.5,29.7,27.5,19.8,10.6,71,46,25,29.94,29.61,14,7,27,0.00
2014-2-22,49.1,37.2,29.1,32.8,25.0,15.0,81,62,45,30.11,29.93,5,1,14,0.16
2014-2-23,35.1,26.6,21.9,15.3,9.6,5.0,60,49,29,30.35,30.09,4,1,13,0.00
2014-2-24,26.4,23.5,19.9,14.6,10.0,6.4,68,56,43,30.41,30.25,4,2,8,0.00
2014-2-25,23.9,19.0,11.8,15.6,6.0,-9.8,79,57,32,30.35,30.26,8,3,18,0.00
2014-2-26,23.5,14.2,1.8,4.6,-8.3,-19.9,50,37,21,30.37,29.87,11,6,21,0.00
2014-2-27,23.5,16.3,10.6,7.0,-9.3,-17.9,50,32,20,30.20,29.87,8,4,16,0.00
2014-2-28,44.8,27.8,9.7,18.0,6.0,-8.7,57,41,24,30.15,29.93,6,3,13,0.00
2014-3-1,38.7,27.4,16.0,22.6,17.1,8.3,79,66,46,30.33,30.01,5,3,14,0.00
2014-3-2,16.0,8.4,1.6,8.0,-6.4,-17.7,71,51,33,30.45,30.29,5,4,15,0.01
2014-3-3,23.4,8.5,-4.9,2.5,-11.6,-24.9,57,39,27,30.55,30.32,4,2,13,0.00
2014-3-4,39.7,24.9,12.2,16.3,7.6,0.8,63,48,27,30.35,30.13,6,2,11,0.04
2014-3-5,37.4,28.6,23.0,20.5,16.0,13.0,72,59,44,30.36,30.16,6,2,18,0.00
2014-3-6,45.3,31.1,20.3,23.6,18.3,13.6,75,60,41,30.34,30.07,4,1,9,0.00
2014-3-7,59.4,43.0,28.9,32.4,26.0,19.6,74,53,31,30.08,29.89,7,2,13,0.00
2014-3-8,39.2,35.0,32.4,31.8,29.5,27.4,89,80,72,30.31,30.00,4,2,11,0.02
2014-3-9,54.1,39.3,25.3,30.3,26.4,20.6,87,62,36,30.32,29.96,9,3,17,0.02
2014-3-10,64.6,51.7,42.4,37.9,33.5,28.2,66,51,32,29.96,29.72,11,5,22,0.00
2014-3-11,77.9,54.0,39.6,52.5,40.3,33.7,98,63,36,29.73,29.51,10,3,23,0.43
2014-3-12,39.7,33.7,26.6,38.8,27.2,18.5,99,78,51,30.15,29.58,8,4,18,0.67
2014-3-13,59.0,39.5,23.2,37.6,28.6,18.0,87,66,43,30.17,29.90,7,2,16,0.00
2014-3-14,63.7,50.5,39.9,36.3,31.2,26.3,74,50,25,30.00,29.76,15,4,30,0.00
2014-3-15,62.6,46.3,33.4,40.0,32.7,23.3,85,60,38,30.08,29.97,8,3,17,0.00
2014-3-16,36.3,29.4,22.3,31.4,16.5,8.0,82,59,37,30.21,30.06,10,6,26,0.00
2014-3-17,45.5,30.1,16.3,23.2,15.4,9.9,80,56,28,30.15,29.78,3,2,8,0.00
2014-3-18,59.7,45.3,33.1,43.1,35.3,22.5,93,70,47,29.81,29.58,7,4,16,0.00
2014-3-19,50.5,41.7,30.6,46.3,36.0,25.5,98,81,64,30.14,29.59,9,4,21,0.05
2014-3-20,64.9,45.5,29.3,37.2,31.0,25.5,86,61,26,30.13,29.92,7,2,16,0.00
2014-3-21,72.9,53.3,36.7,38.6,32.8,19.9,79,51,14,30.01,29.72,8,3,19,0.00
2014-3-22,45.3,37.1,31.3,37.2,25.0,14.1,81,62,43,30.36,30.00,7,4,16,0.00
2014-3-23,39.2,29.5,22.6,14.7,8.4,-0.4,58,42,21,30.49,30.36,5,3,14,0.00
2014-3-24,39.2,31.6,22.6,21.8,12.2,7.3,63,45,29,30.40,30.15,4,1,9,0.00
2014-3-25,34.9,29.5,21.4,28.9,14.5,0.0,91,57,23,30.31,30.11,10,4,22,0.00
2014-3-26,50.0,34.1,18.1,29.6,13.2,6.1,68,45,22,30.34,29.99,6,3,16,0.00
2014-3-27,57.0,47.2,36.5,53.5,41.4,30.0,96,81,65,29.99,29.51,12,6,24,0.37
2014-3-28,48.0,41.7,39.0,41.5,36.4,35.1,88,81,73,30.17,29.64,10,3,22,0.00
2014-3-29,44.2,39.5,33.6,36.3,33.8,28.6,92,80,65,30.27,30.12,6,2,15,0.00
2014-3-30,64.9,46.6,31.5,39.3,34.7,28.3,90,66,34,30.28,30.03,6,2,15,0.00
2014-3-31,66.4,56.2,45.0,45.4,41.3,37.9,82,59,41,30.03,29.73,10,5,23,0.00
2014-4-1,57.4,45.8,32.2,43.1,28.5,18.2,90,52,34,30.10,29.85,10,4,21,0.23
2014-4-2,54.5,46.9,42.4,51.4,45.1,38.3,99,94,84,30.12,29.88,4,2,11,0.85
2014-4-3,60.6,52.1,46.2,58.7,51.4,45.4,99,97,86,29.88,29.58,9,3,14,1.61
2014-4-4,58.5,44.1,37.4,55.3,36.2,29.4,97,74,58,30.15,29.53,12,7,25,0.02
2014-4-5,55.0,44.2,36.0,34.7,30.7,26.8,75,60,38,30.26,30.14,4,1,9,0.00
2014-4-6,61.5,48.1,35.8,37.7,34.6,29.8,84,62,35,30.15,29.90,4,1,10,0.00
2014-4-7,56.5,50.0,44.4,43.6,36.2,30.9,77,60,38,29.90,29.68,4,2,11,0.00
2014-4-8,63.5,52.8,43.5,43.9,34.6,23.4,87,55,23,30.02,29.74,7,3,17,0.00
2014-4-9,66.6,52.1,38.5,37.4,32.3,23.4,83,52,20,30.13,29.91,9,3,18,0.00
2014-4-10,74.3,60.4,52.3,48.3,38.9,30.8,62,46,35,30.01,29.79,12,4,23,0.01
2014-4-11,74.1,59.0,42.4,36.8,29.1,19.2,64,36,13,30.10,30.00,6,2,14,0.00
2014-4-12,81.7,68.1,55.0,58.5,51.3,33.4,88,57,40,30.03,29.68,10,4,24,0.00
2014-4-13,72.5,66.2,58.5,64.6,59.0,55.5,95,78,66,29.77,29.45,11,5,25,0.07
2014-4-14,58.3,40.4,31.6,56.4,38.1,24.5,99,92,73,30.10,29.49,8,4,18,0.05
2014-4-15,46.8,36.8,27.3,25.0,19.9,13.1,76,53,26,30.23,30.09,6,3,17,0.05
2014-4-16,57.7,45.5,33.6,31.2,26.2,20.9,70,49,29,30.23,30.03,7,4,17,0.00
2014-4-17,58.8,51.0,42.6,42.2,36.8,30.1,72,58,50,30.30,30.11,7,3,14,0.00
2014-4-18,70.3,55.9,41.5,42.2,36.3,26.1,89,53,20,30.35,30.22,4,1,9,0.00
2014-4-19,76.5,60.3,41.4,43.9,38.0,29.5,77,47,24,30.31,30.17,5,2,11,0.00
2014-4-20,82.4,68.3,53.8,46.4,41.0,37.1,56,39,21,30.21,30.03,8,3,17,0.00
2014-4-21,69.8,64.6,60.1,61.8,54.7,45.9,99,72,47,30.03,29.90,6,2,11,0.04
2014-4-22,68.4,57.8,47.8,60.5,36.9,22.0,94,50,18,30.07,29.92,6,3,16,0.00
2014-4-23,62.8,53.1,39.9,34.9,31.1,24.1,76,46,24,30.18,29.94,4,2,10,0.00
2014-4-24,74.8,60.2,47.5,57.7,43.2,33.8,99,57,32,29.96,29.58,14,3,30,0.18
2014-4-25,75.4,60.9,45.7,53.9,45.6,37.7,98,64,26,29.95,29.67,8,4,19,0.04
2014-4-26,81.3,67.1,56.1,57.7,44.7,37.1,84,48,21,29.92,29.78,6,2,14,0.09
2014-4-27,79.0,65.9,52.3,67.8,55.5,41.2,99,70,54,29.85,29.52,5,3,13,0.64
2014-4-28,75.6,63.5,54.7,63.2,57.4,46.9,99,82,56,29.63,29.38,11,3,26,0.74
2014-4-29,57.6,54.2,50.7,49.8,45.8,42.3,89,73,62,29.71,29.44,10,5,17,0.02
2014-4-30,54.5,47.5,41.9,49.9,41.1,36.1,99,80,54,29.90,29.71,10,5,22,0.05
2014-5-1,52.5,47.0,42.4,44.3,41.5,39.4,93,82,64,29.96,29.83,9,5,21,0.00
2014-5-2,60.3,52.1,45.5,44.3,42.7,40.4,91,71,52,29.95,29.79,9,4,18,0.00
2014-5-3,73.6,61.9,49.3,44.6,40.3,32.0,75,48,23,29.96,29.78,6,3,15,0.00
2014-5-4,74.3,62.8,49.6,47.0,42.1,31.8,82,49,32,30.05,29.89,5,2,18,0.00
2014-5-5,77.2,62.9,48.7,48.6,39.4,22.0,54,43,31,29.94,29.77,4,2,13,0.00
2014-5-6,84.4,67.8,51.3,62.1,50.4,40.4,68,55,41,29.89,29.67,5,2,14,0.00
2014-5-7,85.3,75.6,65.3,62.8,59.8,55.8,74,59,44,29.81,29.70,7,2,17,0.00
2014-5-8,86.4,74.2,65.5,67.8,63.4,60.6,99,71,43,29.89,29.80,12,4,21,0.60
2014-5-9,76.1,69.0,60.6,66.2,56.4,46.2,97,68,37,29.92,29.74,9,4,17,0.04
2014-5-10,81.1,67.9,56.1,61.4,47.9,37.1,98,54,21,30.00,29.84,4,1,9,0.71
2014-5-11,85.1,73.2,60.3,71.8,65.0,57.2,99,77,54,29.96,29.80,7,2,16,0.16
2014-5-12,86.7,76.7,65.7,72.0,69.2,63.3,99,79,55,29.94,29.78,8,3,18,0.21
2014-5-13,66.7,56.4,50.7,66.5,53.9,47.3,99,91,79,30.23,29.88,4,2,11,0.14
2014-5-14,55.0,49.9,45.9,49.0,44.5,40.9,98,82,62,30.23,30.04,4,1,12,0.35
2014-5-15,59.0,50.3,44.8,49.7,45.4,39.3,99,85,56,30.08,30.00,8,1,19,0.12
2014-5-16,54.9,46.2,40.3,43.4,40.6,37.1,99,82,56,30.15,30.00,6,2,14,0.00
2014-5-17,61.7,51.3,40.8,43.3,37.3,30.0,99,64,31,30.23,30.14,5,1,11,0.00
2014-5-18,68.5,56.7,43.2,45.2,41.0,37.8,87,59,33,30.29,30.17,4,1,14,0.00
2014-5-19,74.8,64.6,53.2,62.0,51.7,42.5,84,63,46,30.20,29.85,4,2,16,0.00
2014-5-20,86.5,75.3,64.6,67.0,63.7,60.3,87,69,49,29.94,29.81,8,3,17,0.00
2014-5-21,86.9,78.0,69.1,71.2,66.8,64.2,87,70,51,29.99,29.84,7,4,16,0.00
2014-5-22,76.5,68.8,63.0,68.2,55.0,52.0,90,62,44,30.20,29.99,4,1,12,0.00
2014-5-23,81.0,68.9,55.4,55.0,47.9,37.9,88,52,23,30.19,30.09,2,1,8,0.00
2014-5-24,79.7,69.6,57.6,56.2,50.8,47.0,71,53,32,30.20,30.08,3,0,9,0.00
2014-5-25,78.1,70.6,63.7,65.7,60.1,52.6,85,70,54,30.14,30.02,3,0,8,0.00
2014-5-26,86.5,73.1,65.5,72.0,66.2,61.1,95,80,48,30.07,29.98,16,3,27,0.11
2014-5-27,82.9,74.0,64.6,66.0,64.1,61.4,97,73,49,30.03,29.92,6,2,12,0.00
2014-5-28,86.5,74.3,66.2,72.5,66.9,62.6,96,79,45,29.99,29.92,5,1,11,0.02
2014-5-29,84.0,73.7,64.4,73.3,67.5,63.7,99,83,54,30.06,29.95,4,1,11,0.14
2014-5-30,83.5,72.9,67.3,75.1,70.2,67.0,99,92,61,30.12,30.05,3,0,9,1.13
2014-5-31,86.9,75.8,68.0,74.1,70.1,67.7,99,84,55,30.14,30.02,5,0,11,0.04
2014-6-1,88.2,78.3,69.3,72.8,68.5,65.1,89,73,52,30.07,29.89,6,2,15,0.00
2014-6-2,82.6,76.7,73.0,70.4,67.7,64.6,89,74,57,29.97,29.84,7,4,16,0.00
2014-6-3,90.3,79.1,69.3,69.5,65.9,57.9,93,66,36,30.02,29.83,4,2,9,0.00
2014-6-4,78.8,70.3,64.2,71.8,66.0,61.9,99,87,71,29.92,29.64,9,2,34,2.41
2014-6-5,76.1,68.0,59.7,62.0,59.3,57.3,96,75,57,30.02,29.85,2,1,10,0.00
2014-6-6,81.0,71.9,61.2,66.1,62.7,58.9,94,74,53,30.00,29.91,4,1,8,0.00
2014-6-7,77.4,69.1,63.5,70.0,65.0,61.8,99,87,63,29.98,29.69,4,1,19,1.63
2014-6-8,76.8,68.9,60.1,64.6,61.6,59.1,99,79,56,30.03,29.82,4,1,10,0.00
2014-6-9,79.0,68.4,57.0,64.6,57.8,49.9,90,70,48,30.00,29.83,2,1,8,0.07
2014-6-10,76.5,65.7,59.4,70.4,64.1,57.5,99,95,77,29.84,29.70,5,1,15,2.37
2014-6-11,69.8,65.5,61.9,65.8,63.7,61.3,99,94,84,29.82,29.70,4,1,8,0.23
2014-6-12,78.4,68.1,61.2,68.4,63.8,60.6,99,87,64,29.95,29.81,6,2,13,0.02
2014-6-13,74.7,65.0,55.2,61.5,51.1,43.8,97,64,35,30.10,29.94,3,1,10,0.00
2014-6-14,79.9,67.8,55.0,56.2,52.0,46.0,82,59,37,30.12,29.91,5,1,13,0.00
2014-6-15,86.0,73.7,63.1,70.1,62.9,55.2,92,70,46,30.02,29.81,8,3,17,0.00
2014-6-16,87.3,78.6,68.4,75.8,71.0,66.9,97,79,60,30.09,29.89,5,1,13,0.00
2014-6-17,89.1,81.2,75.4,75.0,72.1,69.0,87,74,58,30.01,29.86,9,4,19,0.00
2014-6-18,91.2,81.7,73.2,76.0,72.6,70.7,93,75,54,29.99,29.91,6,3,15,0.00
2014-6-19,91.6,82.2,71.1,74.7,71.6,67.4,98,72,47,30.06,29.95,6,2,13,0.39
2014-6-20,87.3,77.2,69.8,75.3,70.8,60.9,98,82,53,30.04,29.72,6,1,15,3.26
2014-6-21,88.5,79.6,67.5,75.3,70.1,62.1,96,74,57,30.01,29.74,10,1,19,1.00
2014-6-22,85.8,77.2,65.7,75.8,71.0,64.9,99,82,69,29.98,29.14,8,2,10,0.59
2014-6-23,86.0,0.0,200.0,-99.9,-99.9,-99.9,0,0,100,29.89,29.80,11,-999,16,1.01
2014-6-24,85.5,76.5,70.3,73.2,68.6,61.9,98,78,50,30.59,29.68,6,2,11,0.09
2014-6-25,86.9,76.8,67.5,68.8,65.4,59.7,94,70,45,30.70,30.02,10,2,14,0.00
2014-6-26,86.7,77.7,69.3,72.5,68.5,64.4,88,74,53,30.72,29.97,11,1,15,0.00
2014-6-27,87.6,76.7,70.0,73.9,70.4,67.6,94,82,59,30.07,29.98,12,1,16,0.00
2014-6-28,85.6,77.7,71.4,75.0,71.8,70.1,96,83,67,30.07,29.93,11,2,15,0.00
2014-6-29,85.6,77.7,70.5,76.4,72.2,62.8,95,84,69,30.08,29.93,11,3,16,0.00
2014-6-30,89.4,81.3,72.7,78.7,75.3,65.5,97,83,66,29.97,29.69,15,4,22,0.00
2014-7-1,82.8,74.9,69.1,69.8,66.5,60.4,98,77,50,29.97,29.77,13,4,18,0.16
2014-7-2,72.5,65.6,60.6,64.7,57.5,54.1,87,75,64,30.18,29.96,10,3,17,0.00
2014-7-3,78.4,67.1,56.7,60.5,56.3,52.4,98,71,43,30.30,30.16,8,2,12,0.00
2014-7-4,79.9,70.2,60.8,61.4,55.6,50.4,87,62,41,30.39,30.30,8,1,12,0.00
2014-7-5,77.4,70.0,60.8,61.9,57.5,53.4,77,65,53,30.35,30.11,12,1,16,0.00
2014-7-6,86.2,76.8,68.4,72.5,68.1,61.7,89,75,57,30.13,29.87,12,5,19,0.00
2014-7-7,89.2,80.5,73.2,75.3,71.3,67.1,89,75,51,29.93,29.74,13,4,19,0.00
2014-7-8,82.6,74.1,66.4,72.1,65.0,58.7,99,76,48,30.00,29.73,13,4,23,1.44
2014-7-9,81.1,72.0,63.5,65.3,59.8,55.3,92,68,42,30.16,29.99,10,2,15,0.00
2014-7-10,82.4,72.0,61.9,61.2,57.7,54.7,87,63,41,30.24,30.16,8,0,11,0.00
2014-7-11,84.4,75.0,62.1,70.8,63.2,54.7,79,68,53,30.27,30.10,9,1,14,0.00
2014-7-12,89.4,82.0,76.8,75.9,73.5,70.5,91,76,59,30.15,29.99,12,5,18,0.00
2014-7-13,82.8,77.0,70.9,73.9,71.6,65.9,97,84,57,30.08,29.97,10,2,14,2.16
2014-7-14,83.8,74.4,63.9,73.1,65.0,51.4,99,75,46,30.08,29.92,12,3,17,0.00
2014-7-15,71.1,62.9,54.5,54.9,52.9,50.1,87,71,54,30.12,30.06,9,2,16,0.00
2014-7-16,75.9,65.1,54.7,58.6,55.0,51.8,96,72,46,30.15,30.08,8,1,11,0.00
2014-7-17,78.8,68.5,57.7,59.1,56.1,52.7,90,67,44,30.20,30.13,9,1,13,0.00
2014-7-18,80.1,70.8,61.9,61.1,57.8,55.6,82,65,45,30.24,30.12,8,1,11,0.00
2014-7-19,79.5,70.3,60.3,64.7,59.2,56.6,91,70,47,30.18,30.07,6,0,8,0.00
2014-7-20,82.8,72.6,62.4,65.2,61.6,57.9,87,70,50,30.15,30.06,10,1,13,0.00
2014-7-21,86.0,75.7,64.6,71.1,66.3,60.7,89,74,57,30.18,30.09,10,2,15,0.00
2014-7-22,85.1,77.6,68.4,77.1,71.8,65.8,93,82,72,30.16,30.03,10,2,14,0.00
2014-7-23,80.8,76.0,66.4,75.5,66.5,58.4,94,74,52,30.22,30.06,10,2,17,0.00
2014-7-24,79.2,68.6,57.6,58.8,55.2,52.8,87,64,42,30.25,30.09,9,1,13,0.00
2014-7-25,76.8,66.9,62.1,66.4,59.8,55.3,99,79,55,30.19,29.91,14,2,24,0.48
2014-7-26,86.7,76.6,68.2,77.6,72.2,63.3,97,87,69,29.97,29.87,11,3,16,0.00
2014-7-27,85.8,76.7,67.3,75.3,67.3,58.1,99,76,45,30.07,29.85,15,3,23,0.00
2014-7-28,73.8,67.5,60.6,62.7,57.4,53.0,95,72,50,30.22,30.06,9,2,16,0.00
2014-7-29,78.3,67.6,56.7,62.5,56.4,52.7,89,70,44,30.22,30.12,10,2,14,0.00
2014-7-30,81.0,70.4,59.7,62.8,59.1,55.7,93,70,43,30.17,30.10,9,2,13,0.00
2014-7-31,82.6,71.9,61.0,64.6,60.1,56.7,96,69,42,30.18,30.10,8,1,11,0.00
2014-8-1,78.8,70.2,64.2,70.7,64.0,59.6,95,81,62,30.19,30.12,14,1,18,0.11
2014-8-2,82.8,71.6,60.3,67.7,62.5,59.3,98,76,48,30.25,30.16,6,1,9,0.00
2014-8-3,83.8,78.6,70.9,66.9,64.6,60.0,78,63,46,30.27,30.13,8,2,10,0.00
2014-8-4,87.1,76.3,66.2,70.1,66.0,62.1,88,72,50,30.20,30.06,11,2,15,0.00
2014-8-5,83.7,75.3,67.1,71.9,68.6,62.1,98,81,64,30.12,30.05,6,1,11,0.34
2014-8-6,80.6,73.0,66.2,72.3,68.4,65.6,99,86,66,30.19,30.05,7,1,10,0.05
2014-8-7,71.6,69.1,66.7,70.0,67.9,65.9,99,96,86,30.09,29.98,8,1,15,2.07
2014-8-8,72.3,69.3,67.5,69.9,68.2,67.2,99,97,91,30.08,29.98,9,1,11,0.44
2014-8-9,77.2,71.4,67.1,70.7,68.0,65.6,97,89,79,30.11,30.05,7,1,10,0.04
2014-8-10,77.0,72.6,67.8,70.9,68.5,65.9,95,87,74,30.10,30.00,7,1,11,0.00
2014-8-11,83.3,73.7,66.6,72.4,68.2,63.1,99,84,59,30.03,29.94,11,2,16,0.39
2014-8-12,77.2,68.5,61.3,63.3,58.9,54.1,97,74,46,30.11,29.99,10,2,22,0.00
2014-8-13,79.0,68.9,57.7,61.2,57.7,53.1,95,70,44,30.20,30.10,7,1,9,0.00
2014-8-14,82.8,72.5,61.5,68.6,62.9,58.6,92,73,52,30.18,30.07,8,2,13,0.00
2014-8-15,77.5,70.9,62.1,70.7,65.3,57.9,96,83,69,30.15,30.00,4,0,6,0.02
2014-8-16,71.4,70.3,67.6,70.2,68.5,65.2,98,94,87,30.02,29.91,11,1,16,0.37
2014-8-17,77.5,72.1,69.4,72.3,70.1,68.3,99,94,82,30.01,29.89,6,1,10,0.00
2014-8-18,83.7,74.8,66.7,72.8,69.7,66.2,99,85,64,30.00,29.86,7,1,9,0.00
2014-8-19,84.2,75.3,69.3,73.3,70.3,66.9,97,85,63,29.91,29.83,14,2,20,0.05
2014-8-20,82.8,74.5,70.2,74.4,70.8,67.8,96,89,75,30.11,29.89,8,1,13,0.11
2014-8-21,91.2,81.0,72.7,77.9,73.2,68.8,92,78,59,30.04,29.94,12,4,20,0.00
2014-8-22,88.9,81.7,76.5,78.0,75.0,71.2,89,80,65,30.07,29.95,9,2,15,0.02
2014-8-23,93.4,84.0,76.6,79.5,76.6,74.3,95,80,56,30.03,29.93,7,1,11,0.00
2014-8-24,95.0,83.3,72.0,79.3,74.0,67.9,91,75,47,30.04,29.96,8,1,10,0.00
2014-8-25,84.4,79.3,77.9,77.5,76.6,72.2,95,92,76,30.12,30.02,1,0,3,0.00
2014-8-26,91.9,82.4,74.1,77.6,74.3,68.9,95,78,60,30.18,30.07,8,1,16,0.00
2014-8-27,84.6,78.1,71.6,74.7,71.0,65.8,89,79,68,30.19,30.10,7,1,13,0.00
2014-8-28,89.4,80.5,70.0,75.3,72.3,67.9,94,77,59,30.15,29.99,9,1,14,0.11
2014-8-29,89.2,78.0,71.2,72.8,69.8,67.1,93,78,53,30.06,29.88,22,2,35,0.09
2014-8-30,84.2,79.8,73.0,73.9,71.8,70.2,91,77,66,30.00,29.93,12,3,18,0.00
2014-8-31,89.4,78.2,70.3,74.1,70.9,67.7,96,80,51,30.03,29.90,10,2,13,0.00
2014-9-1,83.8,76.1,70.7,72.0,67.8,63.0,94,77,53,30.00,29.67,14,5,20,0.05
2014-9-2,82.2,74.3,68.4,70.6,67.4,63.1,97,81,55,30.09,29.93,8,3,11,0.05
2014-9-3,87.3,75.4,67.1,70.5,68.1,65.4,96,79,55,30.13,29.94,10,1,15,0.00
2014-9-4,94.1,81.0,71.6,76.2,71.6,67.9,89,75,53,30.08,29.98,10,3,19,0.00
2014-9-5,92.5,77.2,60.8,73.5,69.2,59.1,94,79,51,30.26,29.97,13,3,24,0.73
2014-9-6,75.4,64.4,59.0,60.7,56.9,52.7,96,79,48,30.30,30.18,7,2,15,0.00
2014-9-7,79.3,65.6,54.5,58.6,52.5,46.8,95,67,33,30.32,30.17,7,1,12,0.00
2014-9-8,82.4,68.6,56.3,60.4,56.6,52.6,90,67,44,30.22,30.04,10,1,13,0.00
2014-9-9,71.8,67.6,63.9,70.6,62.7,55.4,97,85,64,30.10,29.86,8,2,15,1.24
2014-9-10,78.6,72.5,62.6,74.1,69.7,57.3,97,91,83,30.02,29.71,17,5,26,1.29
2014-9-11,62.2,56.1,52.9,57.3,51.8,47.5,93,86,78,30.37,30.00,7,2,11,0.00
2014-9-12,55.4,52.1,47.3,50.7,47.9,44.2,94,86,82,30.46,30.33,9,2,14,0.05
2014-9-13,64.2,50.7,39.7,45.2,41.7,37.1,99,74,41,30.51,30.38,7,1,13,0.00
2014-9-14,71.2,55.9,43.0,49.2,44.8,41.0,95,69,38,30.43,30.24,8,1,12,0.00
2014-9-15,61.7,58.9,56.7,60.5,54.9,48.2,97,87,70,30.28,30.12,5,0,9,2.32
2014-9-16,70.0,57.9,49.1,55.8,51.4,48.5,98,81,52,30.34,30.16,7,1,9,0.00
2014-9-17,68.7,58.1,50.7,57.2,52.8,48.7,95,83,63,30.18,30.01,7,0,11,0.00
2014-9-18,76.5,62.8,52.2,57.6,52.8,50.2,95,73,45,30.19,30.08,7,0,11,0.00
2014-9-19,79.9,65.5,53.6,58.6,53.9,48.9,85,68,44,30.21,30.05,11,1,14,0.00
2014-9-20,82.4,71.6,61.2,72.6,65.2,57.0,94,81,65,30.09,29.91,14,4,23,0.00
2014-9-21,73.4,65.4,54.3,69.1,54.5,47.0,94,70,41,30.27,29.93,15,3,21,0.00
2014-9-22,74.1,59.3,49.1,52.4,47.4,40.3,96,68,32,30.42,30.26,7,1,8,0.00
2014-9-23,70.5,57.2,50.0,51.3,46.8,43.3,80,69,48,30.41,30.30,1,0,3,0.00
2014-9-24,84.6,65.1,52.9,53.6,49.8,46.6,84,61,32,30.41,29.94,11,1,18,0.00
2014-9-25,82.4,69.3,59.4,59.7,55.7,50.7,76,63,43,30.35,30.22,7,1,11,0.00
2014-9-26,85.3,71.8,62.2,61.6,58.1,55.8,82,64,43,30.30,30.19,7,0,10,0.00
2014-9-27,85.5,70.3,59.9,62.9,57.7,54.2,85,66,43,30.30,30.15,7,0,11,0.00
2014-9-28,86.5,70.7,57.9,61.1,55.1,51.8,86,61,33,30.24,30.10,6,0,7,0.00
2014-9-29,84.9,75.6,60.3,61.8,58.7,56.1,87,57,42,30.15,30.01,7,1,11,0.00
2014-9-30,78.1,65.5,58.5,61.8,58.4,54.4,97,79,54,30.09,29.96,5,1,12,0.00
2014-10-1,80.6,65.3,53.6,66.3,58.6,49.6,97,80,52,30.02,29.86,9,1,12,0.19
2014-10-2,68.0,65.8,61.9,66.6,64.7,60.7,98,96,94,29.98,29.69,12,1,17,1.61
2014-10-3,62.2,53.0,43.2,61.4,47.3,32.8,97,82,59,30.12,29.66,12,4,20,0.37
2014-10-4,54.0,44.6,37.6,34.7,32.4,29.0,76,63,42,30.06,29.97,17,6,26,0.00
2014-10-5,68.7,52.0,40.5,45.9,40.8,34.0,81,67,37,29.97,29.71,12,2,19,0.00
2014-10-6,68.5,57.5,50.2,50.6,46.2,39.3,93,69,37,29.83,29.72,14,4,26,0.02
2014-10-7,75.7,61.1,52.9,57.9,48.9,30.7,96,69,22,30.04,29.78,14,3,27,0.07
2014-10-8,73.4,59.0,47.7,46.6,42.7,40.0,80,57,31,30.21,30.03,10,1,12,0.00
2014-10-9,60.8,56.1,52.7,52.8,49.4,42.0,94,79,52,30.25,30.11,6,1,11,0.16
2014-10-10,56.5,53.4,49.3,53.6,44.6,37.6,96,73,53,30.26,30.15,8,1,15,0.05
2014-10-11,62.4,50.6,42.6,44.9,42.1,38.9,95,74,46,30.33,30.21,7,1,12,0.00
2014-10-12,58.6,54.8,45.3,57.9,53.1,40.2,98,94,82,30.21,29.92,3,0,7,0.02
2014-10-13,68.4,63.2,58.5,67.0,61.5,57.9,99,94,86,29.94,29.52,9,1,15,0.51
2014-10-14,62.1,56.8,52.2,59.4,54.8,51.6,98,93,85,29.78,29.48,11,2,17,0.14
2014-10-15,55.4,52.6,50.5,51.8,49.6,47.6,99,90,76,29.98,29.76,7,1,14,0.02
2014-10-16,72.1,58.0,48.2,54.0,49.6,46.3,97,76,41,30.00,29.78,12,2,18,0.00
2014-10-17,63.7,57.9,52.3,49.2,46.7,43.9,79,67,54,30.08,29.77,14,4,21,0.00
2014-10-18,56.1,51.2,45.7,46.9,44.1,42.6,92,77,64,30.32,30.08,9,1,17,0.00
2014-10-19,61.9,52.8,44.2,49.5,45.6,42.0,95,77,52,30.34,29.95,10,1,13,0.07
2014-10-20,69.6,59.1,52.0,51.6,47.2,42.8,94,67,39,29.98,29.88,9,1,15,0.00
2014-10-21,62.4,52.9,44.2,46.6,43.5,39.0,98,72,44,30.20,29.97,8,0,12,0.00
2014-10-22,63.9,49.3,37.9,45.1,41.5,37.8,99,77,40,30.31,30.17,7,0,7,0.00
2014-10-23,62.4,52.2,42.6,49.8,44.4,39.7,92,76,53,30.19,30.03,11,0,12,0.00
2014-10-24,70.9,60.1,51.8,57.6,52.9,47.5,99,79,52,30.09,29.92,8,1,12,0.00
2014-10-25,78.6,65.1,53.4,61.9,52.2,43.0,99,68,29,30.02,29.92,6,0,7,0.00
2014-10-26,75.6,61.4,48.2,58.3,41.9,31.1,78,51,27,30.02,29.74,5,0,7,0.00
2014-10-27,77.2,70.2,63.3,62.2,60.2,57.4,93,72,51,29.75,29.57,12,3,18,0.00
2014-10-28,71.6,58.2,49.3,66.0,40.2,25.3,98,55,25,30.06,29.69,15,2,20,0.30
2014-10-29,57.0,47.1,40.5,38.7,35.7,32.9,85,66,44,30.16,30.05,12,1,18,0.00
2014-10-30,53.8,45.5,37.9,48.4,41.5,36.1,97,86,66,30.14,29.96,10,0,12,0.05
2014-10-31,46.4,41.0,31.8,44.8,27.4,15.4,98,61,31,30.37,30.04,18,2,25,0.00
2014-11-1,48.9,36.3,27.7,29.1,23.6,18.5,84,61,37,30.45,30.34,7,0,10,0.00
2014-11-2,51.1,40.9,31.3,30.7,26.9,21.2,84,59,31,30.38,30.13,11,1,20,0.00
2014-11-3,70.0,56.7,42.8,46.2,37.6,28.0,61,49,35,30.15,29.98,18,3,22,0.00
2014-11-4,60.4,50.5,43.0,54.3,46.1,39.6,99,85,51,30.16,29.96,13,2,15,0.11
2014-11-5,64.6,50.6,39.9,42.4,38.3,25.7,99,68,23,30.17,29.92,14,2,18,0.00
2014-11-6,51.6,43.7,32.5,46.4,34.4,26.8,86,70,48,30.26,29.91,19,3,28,0.04
2014-11-7,53.2,40.7,28.6,34.7,30.9,26.6,99,70,42,30.24,29.78,12,1,15,0.00
2014-11-8,50.7,44.4,33.4,41.4,32.0,26.1,81,62,39,30.04,29.75,14,2,22,0.00
2014-11-9,60.4,45.3,32.9,37.2,31.9,26.1,81,62,34,30.02,29.75,15,2,20,0.00
2014-11-10,68.9,55.5,43.5,47.3,42.3,35.8,87,63,38,29.76,29.46,18,1,20,0.00
2014-11-11,58.1,36.4,30.0,48.2,30.2,21.6,97,78,67,30.24,29.58,15,3,20,0.20
2014-11-12,30.6,27.1,24.1,21.6,12.6,6.8,72,54,45,30.38,30.23,12,3,18,0.00
2014-11-13,28.4,24.5,20.3,18.3,13.8,6.3,77,64,46,30.40,30.35,10,2,12,0.00
2014-11-14,33.3,24.3,16.7,14.4,11.2,7.7,79,59,34,30.42,30.33,9,1,10,0.00
2014-11-15,35.6,27.6,19.8,28.2,17.7,10.8,95,68,38,30.36,30.16,10,0,12,0.00
2014-11-16,32.2,28.7,20.3,29.8,25.7,12.2,99,89,73,30.17,29.97,8,1,10,0.00
2014-11-17,23.5,18.8,15.6,12.2,2.9,-6.9,71,51,29,30.16,29.96,16,4,22,0.00
2014-11-18,25.9,17.9,11.1,8.8,2.0,-3.1,66,50,29,30.25,30.01,19,3,22,0.00
2014-11-19,35.4,29.2,21.2,22.1,14.3,7.5,62,53,46,30.14,29.80,17,4,22,0.00
2014-11-20,34.7,25.9,17.8,13.1,9.4,6.8,65,50,31,30.32,30.11,14,2,18,0.00
2014-11-21,38.5,29.1,17.6,33.3,12.6,3.7,85,51,32,30.41,30.12,9,1,12,0.05
2014-11-22,58.8,49.1,37.6,50.5,44.4,33.3,96,84,70,30.13,29.80,18,3,22,0.00
2014-11-23,54.3,51.6,50.0,53.1,49.5,44.8,99,93,80,29.78,29.16,8,1,10,0.51
2014-11-24,51.8,36.0,32.9,51.4,29.2,21.7,99,77,62,29.93,29.14,20,6,25,0.43
2014-11-25,36.9,30.6,27.1,22.6,19.6,15.8,76,64,49,30.16,29.92,13,2,15,0.00
2014-11-26,33.4,29.8,26.8,30.7,25.8,20.3,95,85,74,30.23,29.94,6,0,7,0.00
2014-11-27,27.7,23.9,16.2,23.7,14.2,2.5,85,67,50,30.46,30.23,0,0,0,0.00
2014-11-28,42.4,31.5,18.0,33.8,23.4,3.7,82,72,53,30.39,29.80,7,1,10,0.20
2014-11-29,62.8,48.5,37.8,48.9,41.7,33.1,91,78,57,29.80,29.59,14,2,18,0.00
2014-11-30,59.9,41.6,24.3,52.7,35.1,13.1,90,78,62,30.33,29.63,14,3,22,0.00
2014-12-1,28.2,22.9,18.0,13.5,6.2,-0.9,66,50,30,30.64,30.32,17,2,20,0.00
2014-12-2,31.5,25.8,17.2,23.4,16.5,5.9,78,68,59,30.46,30.10,7,1,7,0.00
2014-12-3,41.0,32.4,28.2,24.8,19.9,15.4,83,62,37,30.35,30.12,7,1,12,0.00
2014-12-4,36.0,32.9,29.3,33.1,24.5,15.3,95,72,55,30.35,30.14,6,0,10,0.00
2014-12-5,41.2,38.1,34.3,40.6,37.5,33.1,99,98,95,30.18,30.04,9,1,15,0.63
2014-12-6,38.3,34.4,29.3,37.8,31.6,27.3,98,89,79,30.58,30.17,10,1,15,0.00
2014-12-7,36.1,32.1,27.3,31.1,27.6,23.9,93,83,69,30.57,30.21,4,0,7,0.00
2014-12-8,44.2,39.4,34.9,39.7,34.6,25.3,94,83,67,30.21,30.05,11,2,15,0.00
2014-12-9,34.9,32.7,31.3,26.8,24.7,21.2,80,72,60,30.37,30.15,13,2,18,0.00
2014-12-10,34.7,32.8,30.4,27.5,24.3,21.0,81,71,62,30.38,30.25,6,0,7,0.00
2014-12-11,35.4,29.9,25.7,25.3,21.9,20.5,86,72,58,30.33,30.24,6,0,7,0.00
2014-12-12,42.4,36.8,29.8,36.3,30.6,25.0,93,78,70,30.36,30.22,4,0,7,0.00
2014-12-13,54.0,44.4,36.1,44.4,40.0,34.0,99,85,69,30.23,30.07,6,1,7,0.00
2014-12-14,51.8,48.6,45.9,48.9,47.3,43.5,99,95,87,30.08,29.90,6,1,10,0.00
2014-12-15,50.2,48.2,42.4,48.0,46.0,38.5,97,92,78,29.92,29.60,20,4,25,0.22
2014-12-16,42.4,34.1,27.5,40.1,28.6,17.1,97,80,64,30.24,29.66,16,6,22,0.02
2014-12-17,30.0,25.8,23.0,18.5,16.8,14.2,77,68,56,30.31,30.22,9,1,12,0.00
2014-12-18,30.2,27.7,24.4,23.9,20.9,17.2,82,76,69,30.28,30.19,3,0,5,0.00
2014-12-19,34.3,31.0,28.2,25.2,22.7,20.1,80,71,59,30.29,30.21,5,0,7,0.02
2014-12-20,38.3,35.3,32.0,33.1,28.4,23.7,83,76,69,30.24,30.15,4,0,7,0.04
2014-12-21,41.5,38.6,37.2,33.4,32.2,30.4,84,77,70,30.18,29.88,6,1,10,0.00
2014-12-22,47.8,41.8,36.5,47.3,39.0,30.7,98,90,73,29.89,29.45,8,2,10,0.60
2014-12-23,51.3,43.6,37.8,46.6,38.1,33.8,97,81,56,29.74,29.46,16,2,20,0.00
2014-12-24,39.0,36.6,35.4,34.3,32.1,26.4,91,84,69,29.78,29.58,10,2,12,0.01
2014-12-25,50.4,40.5,32.9,35.8,31.3,27.1,82,70,51,29.96,29.78,13,3,18,0.00
2014-12-26,57.6,46.8,37.9,45.7,39.0,33.8,94,75,55,30.02,29.94,12,3,15,0.00
2014-12-27,48.4,40.3,30.9,46.8,35.3,22.8,95,83,68,30.17,29.95,14,3,18,0.02
2014-12-28,36.5,29.9,26.4,23.0,20.1,17.2,79,67,48,30.22,30.14,8,1,12,0.00
2014-12-29,37.8,29.4,22.3,23.7,19.5,11.3,88,68,36,30.45,30.19,7,0,10,0.00
2014-12-30,27.3,19.5,12.9,18.1,2.4,-8.7,68,48,30,30.69,30.44,12,2,12,0.00
2014-12-31,25.2,16.0,7.3,4.6,-4.8,-11.4,52,40,24,30.66,30.25,16,3,20,0.00
2015-1-1,33.1,25.7,17.8,16.7,7.7,1.6,59,47,31,30.26,30.07,18,5,22,0.00
2015-1-2,38.3,33.4,28.2,31.8,22.0,15.1,90,63,41,30.28,30.03,5,0,7,0.00